sensor_id;sensor_type;location;lat;lon;timestamp;P1;durP1;ratioP1;P2;durP2;ratioP2
64712;SDS011;51140;45.340;5.980;2022-07-05T00:00:57;5.40;;;2.22;;
64712;SDS011;51140;45.340;5.980;2022-07-05T00:03:22;5.10;;;2.30;;
64712;SDS011;51140;45.340;5.980;2022-07-05T00:05:48;5.35;;;2.20;;
64712;SDS011;51140;45.340;5.980;2022-07-05T00:08:14;7.20;;;2.30;;
64712;SDS011;51140;45.340;5.980;2022-07-05T00:10:39;5.93;;;2.20;;
64712;SDS011;51140;45.340;5.980;2022-07-05T00:13:05;6.40;;;2.20;;
64712;SDS011;51140;45.340;5.980;2022-07-05T00:15:31;7.20;;;2.40;;
64712;SDS011;51140;45.340;5.980;2022-07-05T00:17:57;6.00;;;2.40;;
64712;SDS011;51140;45.340;5.980;2022-07-05T00:20:22;5.72;;;2.70;;
64712;SDS011;51140;45.340;5.980;2022-07-05T00:22:48;6.75;;;2.60;;
64712;SDS011;51140;45.340;5.980;2022-07-05T00:25:13;6.88;;;2.70;;
64712;SDS011;51140;45.340;5.980;2022-07-05T00:27:39;4.75;;;2.40;;
64712;SDS011;51140;45.340;5.980;2022-07-05T00:30:05;5.60;;;2.33;;
64712;SDS011;51140;45.340;5.980;2022-07-05T00:32:31;6.70;;;2.30;;
64712;SDS011;51140;45.340;5.980;2022-07-05T00:34:57;5.70;;;2.58;;
64712;SDS011;51140;45.340;5.980;2022-07-05T00:37:22;9.27;;;2.60;;
64712;SDS011;51140;45.340;5.980;2022-07-05T00:39:48;4.75;;;2.30;;
64712;SDS011;51140;45.340;5.980;2022-07-05T00:42:13;5.70;;;2.58;;
64712;SDS011;51140;45.340;5.980;2022-07-05T00:44:39;4.60;;;2.20;;
64712;SDS011;51140;45.340;5.980;2022-07-05T00:47:06;5.97;;;2.45;;
64712;SDS011;51140;45.340;5.980;2022-07-05T00:49:34;5.35;;;2.10;;
64712;SDS011;51140;45.340;5.980;2022-07-05T00:52:00;5.25;;;2.42;;
64712;SDS011;51140;45.340;5.980;2022-07-05T00:54:27;7.15;;;2.30;;
64712;SDS011;51140;45.340;5.980;2022-07-05T00:56:53;5.82;;;2.45;;
64712;SDS011;51140;45.340;5.980;2022-07-05T00:59:19;5.75;;;2.47;;
64712;SDS011;51140;45.340;5.980;2022-07-05T01:01:45;5.65;;;2.45;;
64712;SDS011;51140;45.340;5.980;2022-07-05T01:04:11;5.38;;;2.70;;
64712;SDS011;51140;45.340;5.980;2022-07-05T01:06:37;6.45;;;2.38;;
64712;SDS011;51140;45.340;5.980;2022-07-05T01:09:04;6.47;;;2.22;;
64712;SDS011;51140;45.340;5.980;2022-07-05T01:11:30;6.88;;;2.60;;
64712;SDS011;51140;45.340;5.980;2022-07-05T01:13:56;5.40;;;2.35;;
64712;SDS011;51140;45.340;5.980;2022-07-05T01:16:24;7.15;;;2.70;;
64712;SDS011;51140;45.340;5.980;2022-07-05T01:18:50;6.68;;;2.58;;
64712;SDS011;51140;45.340;5.980;2022-07-05T01:21:15;5.22;;;2.50;;
64712;SDS011;51140;45.340;5.980;2022-07-05T01:23:45;6.30;;;2.50;;
64712;SDS011;51140;45.340;5.980;2022-07-05T01:26:10;5.28;;;2.70;;
64712;SDS011;51140;45.340;5.980;2022-07-05T01:28:36;7.55;;;2.40;;
64712;SDS011;51140;45.340;5.980;2022-07-05T01:31:01;5.25;;;2.40;;
64712;SDS011;51140;45.340;5.980;2022-07-05T01:33:28;6.38;;;2.88;;
64712;SDS011;51140;45.340;5.980;2022-07-05T01:35:55;7.00;;;2.78;;
64712;SDS011;51140;45.340;5.980;2022-07-05T01:38:21;7.50;;;2.75;;
64712;SDS011;51140;45.340;5.980;2022-07-05T01:40:47;6.03;;;2.40;;
64712;SDS011;51140;45.340;5.980;2022-07-05T01:43:16;7.45;;;2.65;;
64712;SDS011;51140;45.340;5.980;2022-07-05T01:45:46;6.97;;;2.40;;
64712;SDS011;51140;45.340;5.980;2022-07-05T01:48:13;5.85;;;2.63;;
64712;SDS011;51140;45.340;5.980;2022-07-05T01:50:41;5.53;;;2.40;;
64712;SDS011;51140;45.340;5.980;2022-07-05T01:53:23;5.32;;;2.25;;
64712;SDS011;51140;45.340;5.980;2022-07-05T01:55:52;6.82;;;2.38;;
64712;SDS011;51140;45.340;5.980;2022-07-05T01:58:18;8.32;;;2.80;;
64712;SDS011;51140;45.340;5.980;2022-07-05T02:00:44;6.93;;;2.78;;
64712;SDS011;51140;45.340;5.980;2022-07-05T02:03:11;6.35;;;2.50;;
64712;SDS011;51140;45.340;5.980;2022-07-05T02:05:36;5.22;;;2.58;;
64712;SDS011;51140;45.340;5.980;2022-07-05T02:08:02;4.82;;;2.42;;
64712;SDS011;51140;45.340;5.980;2022-07-05T02:10:27;7.80;;;2.72;;
64712;SDS011;51140;45.340;5.980;2022-07-05T02:12:52;6.43;;;2.50;;
64712;SDS011;51140;45.340;5.980;2022-07-05T02:15:18;4.20;;;2.33;;
64712;SDS011;51140;45.340;5.980;2022-07-05T02:17:43;7.53;;;2.70;;
64712;SDS011;51140;45.340;5.980;2022-07-05T02:20:09;6.55;;;2.60;;
64712;SDS011;51140;45.340;5.980;2022-07-05T02:22:35;6.38;;;2.55;;
64712;SDS011;51140;45.340;5.980;2022-07-05T02:25:00;5.47;;;2.60;;
64712;SDS011;51140;45.340;5.980;2022-07-05T02:27:25;5.68;;;2.85;;
64712;SDS011;51140;45.340;5.980;2022-07-05T02:29:51;7.05;;;2.50;;
64712;SDS011;51140;45.340;5.980;2022-07-05T02:32:17;5.80;;;2.55;;
64712;SDS011;51140;45.340;5.980;2022-07-05T02:34:42;6.10;;;2.80;;
64712;SDS011;51140;45.340;5.980;2022-07-05T02:37:08;7.13;;;2.80;;
64712;SDS011;51140;45.340;5.980;2022-07-05T02:39:33;7.53;;;2.70;;
64712;SDS011;51140;45.340;5.980;2022-07-05T02:41:58;7.15;;;2.80;;
64712;SDS011;51140;45.340;5.980;2022-07-05T02:44:24;6.57;;;2.50;;
64712;SDS011;51140;45.340;5.980;2022-07-05T02:46:49;6.15;;;2.80;;
64712;SDS011;51140;45.340;5.980;2022-07-05T02:49:14;6.63;;;2.60;;
64712;SDS011;51140;45.340;5.980;2022-07-05T02:51:40;5.65;;;2.55;;
64712;SDS011;51140;45.340;5.980;2022-07-05T02:54:05;5.38;;;2.78;;
64712;SDS011;51140;45.340;5.980;2022-07-05T02:56:30;6.57;;;2.80;;
64712;SDS011;51140;45.340;5.980;2022-07-05T02:58:56;6.03;;;2.47;;
64712;SDS011;51140;45.340;5.980;2022-07-05T03:01:21;6.70;;;2.70;;
64712;SDS011;51140;45.340;5.980;2022-07-05T03:03:47;6.05;;;2.50;;
64712;SDS011;51140;45.340;5.980;2022-07-05T03:06:12;5.85;;;2.38;;
64712;SDS011;51140;45.340;5.980;2022-07-05T03:08:38;7.45;;;2.80;;
64712;SDS011;51140;45.340;5.980;2022-07-05T03:11:03;6.05;;;2.50;;
64712;SDS011;51140;45.340;5.980;2022-07-05T03:13:28;8.68;;;2.70;;
64712;SDS011;51140;45.340;5.980;2022-07-05T03:15:54;6.60;;;2.60;;
64712;SDS011;51140;45.340;5.980;2022-07-05T03:18:19;5.20;;;2.35;;
64712;SDS011;51140;45.340;5.980;2022-07-05T03:20:45;7.50;;;2.83;;
64712;SDS011;51140;45.340;5.980;2022-07-05T03:23:10;5.63;;;2.63;;
64712;SDS011;51140;45.340;5.980;2022-07-05T03:25:35;5.97;;;2.92;;
64712;SDS011;51140;45.340;5.980;2022-07-05T03:28:01;8.10;;;2.97;;
64712;SDS011;51140;45.340;5.980;2022-07-05T03:30:26;4.25;;;2.45;;
64712;SDS011;51140;45.340;5.980;2022-07-05T03:32:52;7.07;;;3.03;;
64712;SDS011;51140;45.340;5.980;2022-07-05T03:35:17;6.82;;;2.63;;
64712;SDS011;51140;45.340;5.980;2022-07-05T03:37:42;7.03;;;2.75;;
64712;SDS011;51140;45.340;5.980;2022-07-05T03:40:08;5.63;;;2.60;;
64712;SDS011;51140;45.340;5.980;2022-07-05T03:42:34;6.13;;;2.60;;
64712;SDS011;51140;45.340;5.980;2022-07-05T03:45:00;6.68;;;2.67;;
64712;SDS011;51140;45.340;5.980;2022-07-05T03:47:26;5.47;;;2.75;;
64712;SDS011;51140;45.340;5.980;2022-07-05T03:49:53;5.68;;;2.90;;
64712;SDS011;51140;45.340;5.980;2022-07-05T03:52:19;6.50;;;2.70;;
64712;SDS011;51140;45.340;5.980;2022-07-05T03:54:44;5.70;;;2.67;;
64712;SDS011;51140;45.340;5.980;2022-07-05T03:57:10;5.78;;;2.70;;
64712;SDS011;51140;45.340;5.980;2022-07-05T03:59:36;6.45;;;2.70;;
64712;SDS011;51140;45.340;5.980;2022-07-05T04:02:02;5.57;;;2.78;;
64712;SDS011;51140;45.340;5.980;2022-07-05T04:04:27;6.05;;;2.50;;
64712;SDS011;51140;45.340;5.980;2022-07-05T04:06:53;6.07;;;2.80;;
64712;SDS011;51140;45.340;5.980;2022-07-05T04:09:18;5.50;;;2.58;;
64712;SDS011;51140;45.340;5.980;2022-07-05T04:11:43;6.60;;;2.50;;
64712;SDS011;51140;45.340;5.980;2022-07-05T04:14:09;10.55;;;3.30;;
64712;SDS011;51140;45.340;5.980;2022-07-05T04:16:34;5.80;;;2.40;;
64712;SDS011;51140;45.340;5.980;2022-07-05T04:19:00;6.72;;;2.70;;
64712;SDS011;51140;45.340;5.980;2022-07-05T04:21:25;6.30;;;2.80;;
64712;SDS011;51140;45.340;5.980;2022-07-05T04:23:51;8.00;;;3.00;;
64712;SDS011;51140;45.340;5.980;2022-07-05T04:26:16;6.65;;;2.78;;
64712;SDS011;51140;45.340;5.980;2022-07-05T04:28:42;5.60;;;2.90;;
64712;SDS011;51140;45.340;5.980;2022-07-05T04:31:08;7.13;;;2.80;;
64712;SDS011;51140;45.340;5.980;2022-07-05T04:33:33;6.07;;;2.95;;
64712;SDS011;51140;45.340;5.980;2022-07-05T04:35:59;5.78;;;2.65;;
64712;SDS011;51140;45.340;5.980;2022-07-05T04:38:24;5.53;;;2.80;;
64712;SDS011;51140;45.340;5.980;2022-07-05T04:40:50;5.13;;;2.55;;
64712;SDS011;51140;45.340;5.980;2022-07-05T04:43:15;5.35;;;2.95;;
64712;SDS011;51140;45.340;5.980;2022-07-05T04:45:40;7.20;;;3.38;;
64712;SDS011;51140;45.340;5.980;2022-07-05T04:48:06;7.15;;;2.90;;
64712;SDS011;51140;45.340;5.980;2022-07-05T04:50:31;6.25;;;2.55;;
64712;SDS011;51140;45.340;5.980;2022-07-05T04:52:57;8.15;;;2.80;;
64712;SDS011;51140;45.340;5.980;2022-07-05T04:55:22;6.30;;;2.67;;
64712;SDS011;51140;45.340;5.980;2022-07-05T04:57:47;6.63;;;2.42;;
64712;SDS011;51140;45.340;5.980;2022-07-05T05:00:13;7.10;;;2.90;;
64712;SDS011;51140;45.340;5.980;2022-07-05T05:02:39;5.43;;;2.47;;
64712;SDS011;51140;45.340;5.980;2022-07-05T05:05:05;6.35;;;2.58;;
64712;SDS011;51140;45.340;5.980;2022-07-05T05:07:31;6.90;;;2.72;;
64712;SDS011;51140;45.340;5.980;2022-07-05T05:09:57;6.05;;;2.70;;
64712;SDS011;51140;45.340;5.980;2022-07-05T05:12:23;5.70;;;2.40;;
64712;SDS011;51140;45.340;5.980;2022-07-05T05:14:49;5.32;;;2.65;;
64712;SDS011;51140;45.340;5.980;2022-07-05T05:17:15;5.07;;;2.65;;
64712;SDS011;51140;45.340;5.980;2022-07-05T05:19:40;4.95;;;2.58;;
64712;SDS011;51140;45.340;5.980;2022-07-05T05:22:06;6.00;;;2.60;;
64712;SDS011;51140;45.340;5.980;2022-07-05T05:24:31;6.55;;;2.47;;
64712;SDS011;51140;45.340;5.980;2022-07-05T05:26:59;8.02;;;2.67;;
64712;SDS011;51140;45.340;5.980;2022-07-05T05:29:25;4.88;;;2.20;;
64712;SDS011;51140;45.340;5.980;2022-07-05T05:31:50;4.72;;;1.90;;
64712;SDS011;51140;45.340;5.980;2022-07-05T05:34:16;5.38;;;2.28;;
64712;SDS011;51140;45.340;5.980;2022-07-05T05:36:41;4.57;;;2.40;;
64712;SDS011;51140;45.340;5.980;2022-07-05T05:39:07;7.60;;;2.67;;
64712;SDS011;51140;45.340;5.980;2022-07-05T05:41:32;6.57;;;2.40;;
64712;SDS011;51140;45.340;5.980;2022-07-05T05:43:57;8.13;;;2.45;;
64712;SDS011;51140;45.340;5.980;2022-07-05T05:46:23;4.85;;;2.13;;
64712;SDS011;51140;45.340;5.980;2022-07-05T05:48:48;7.47;;;2.30;;
64712;SDS011;51140;45.340;5.980;2022-07-05T05:51:13;6.47;;;2.60;;
64712;SDS011;51140;45.340;5.980;2022-07-05T05:53:39;8.32;;;2.60;;
64712;SDS011;51140;45.340;5.980;2022-07-05T05:56:04;5.32;;;2.38;;
64712;SDS011;51140;45.340;5.980;2022-07-05T05:58:30;7.10;;;2.47;;
64712;SDS011;51140;45.340;5.980;2022-07-05T06:00:55;8.27;;;2.40;;
64712;SDS011;51140;45.340;5.980;2022-07-05T06:03:21;5.88;;;2.70;;
64712;SDS011;51140;45.340;5.980;2022-07-05T06:05:49;8.85;;;3.30;;
64712;SDS011;51140;45.340;5.980;2022-07-05T06:08:15;9.15;;;3.30;;
64712;SDS011;51140;45.340;5.980;2022-07-05T06:10:42;9.57;;;3.42;;
64712;SDS011;51140;45.340;5.980;2022-07-05T06:13:08;11.18;;;3.70;;
64712;SDS011;51140;45.340;5.980;2022-07-05T06:15:35;8.88;;;3.30;;
64712;SDS011;51140;45.340;5.980;2022-07-05T06:18:01;9.75;;;3.63;;
64712;SDS011;51140;45.340;5.980;2022-07-05T06:20:28;9.48;;;2.92;;
64712;SDS011;51140;45.340;5.980;2022-07-05T06:22:56;10.93;;;3.10;;
64712;SDS011;51140;45.340;5.980;2022-07-05T06:25:23;9.50;;;3.03;;
64712;SDS011;51140;45.340;5.980;2022-07-05T06:30:19;11.20;;;2.90;;
64712;SDS011;51140;45.340;5.980;2022-07-05T06:32:46;8.60;;;2.78;;
64712;SDS011;51140;45.340;5.980;2022-07-05T06:35:13;6.50;;;3.00;;
64712;SDS011;51140;45.340;5.980;2022-07-05T06:40:07;7.18;;;2.50;;
64712;SDS011;51140;45.340;5.980;2022-07-05T06:42:34;5.70;;;2.40;;
64712;SDS011;51140;45.340;5.980;2022-07-05T06:44:59;5.10;;;2.22;;
64712;SDS011;51140;45.340;5.980;2022-07-05T06:47:24;8.95;;;2.20;;
64712;SDS011;51140;45.340;5.980;2022-07-05T06:49:50;5.95;;;2.17;;
64712;SDS011;51140;45.340;5.980;2022-07-05T06:52:15;4.68;;;2.13;;
64712;SDS011;51140;45.340;5.980;2022-07-05T06:54:41;5.60;;;2.10;;
64712;SDS011;51140;45.340;5.980;2022-07-05T06:57:06;6.28;;;2.97;;
64712;SDS011;51140;45.340;5.980;2022-07-05T06:59:31;6.32;;;2.30;;
64712;SDS011;51140;45.340;5.980;2022-07-05T07:01:57;6.47;;;2.38;;
64712;SDS011;51140;45.340;5.980;2022-07-05T07:04:22;8.15;;;2.35;;
64712;SDS011;51140;45.340;5.980;2022-07-05T07:06:47;8.82;;;2.05;;
64712;SDS011;51140;45.340;5.980;2022-07-05T07:09:13;7.03;;;2.17;;
64712;SDS011;51140;45.340;5.980;2022-07-05T07:11:45;5.30;;;2.30;;
64712;SDS011;51140;45.340;5.980;2022-07-05T07:14:11;6.18;;;1.92;;
64712;SDS011;51140;45.340;5.980;2022-07-05T07:16:37;6.55;;;2.00;;
64712;SDS011;51140;45.340;5.980;2022-07-05T07:19:02;4.78;;;2.10;;
64712;SDS011;51140;45.340;5.980;2022-07-05T07:21:28;4.88;;;2.28;;
64712;SDS011;51140;45.340;5.980;2022-07-05T07:23:53;6.15;;;2.20;;
64712;SDS011;51140;45.340;5.980;2022-07-05T07:26:18;5.38;;;2.08;;
64712;SDS011;51140;45.340;5.980;2022-07-05T07:28:44;4.65;;;1.65;;
64712;SDS011;51140;45.340;5.980;2022-07-05T07:31:09;5.88;;;1.83;;
64712;SDS011;51140;45.340;5.980;2022-07-05T07:33:35;5.55;;;2.00;;
64712;SDS011;51140;45.340;5.980;2022-07-05T07:36:01;6.82;;;1.90;;
64712;SDS011;51140;45.340;5.980;2022-07-05T07:38:26;7.53;;;2.15;;
64712;SDS011;51140;45.340;5.980;2022-07-05T07:40:52;5.25;;;2.20;;
64712;SDS011;51140;45.340;5.980;2022-07-05T07:43:17;5.07;;;1.98;;
64712;SDS011;51140;45.340;5.980;2022-07-05T07:45:43;4.85;;;1.90;;
64712;SDS011;51140;45.340;5.980;2022-07-05T07:48:08;4.63;;;2.10;;
64712;SDS011;51140;45.340;5.980;2022-07-05T07:50:34;5.03;;;2.10;;
64712;SDS011;51140;45.340;5.980;2022-07-05T07:52:59;4.07;;;1.75;;
64712;SDS011;51140;45.340;5.980;2022-07-05T07:55:25;6.50;;;2.28;;
64712;SDS011;51140;45.340;5.980;2022-07-05T07:57:51;5.47;;;2.00;;
64712;SDS011;51140;45.340;5.980;2022-07-05T08:00:16;5.47;;;1.98;;
64712;SDS011;51140;45.340;5.980;2022-07-05T08:02:42;5.20;;;2.00;;
64712;SDS011;51140;45.340;5.980;2022-07-05T08:05:07;6.05;;;2.63;;
64712;SDS011;51140;45.340;5.980;2022-07-05T08:07:34;6.47;;;2.40;;
64712;SDS011;51140;45.340;5.980;2022-07-05T08:10:00;7.80;;;2.90;;
64712;SDS011;51140;45.340;5.980;2022-07-05T08:12:26;6.20;;;2.92;;
64712;SDS011;51140;45.340;5.980;2022-07-05T08:14:51;9.07;;;4.85;;
64712;SDS011;51140;45.340;5.980;2022-07-05T08:17:16;10.27;;;5.00;;
64712;SDS011;51140;45.340;5.980;2022-07-05T08:19:45;10.20;;;4.43;;
64712;SDS011;51140;45.340;5.980;2022-07-05T08:22:29;10.50;;;4.78;;
64712;SDS011;51140;45.340;5.980;2022-07-05T08:24:55;8.57;;;4.00;;
64712;SDS011;51140;45.340;5.980;2022-07-05T08:27:20;9.82;;;3.75;;
64712;SDS011;51140;45.340;5.980;2022-07-05T08:29:45;6.93;;;2.90;;
64712;SDS011;51140;45.340;5.980;2022-07-05T08:32:11;6.80;;;2.92;;
64712;SDS011;51140;45.340;5.980;2022-07-05T08:34:36;6.78;;;2.40;;
64712;SDS011;51140;45.340;5.980;2022-07-05T08:37:02;7.50;;;2.85;;
64712;SDS011;51140;45.340;5.980;2022-07-05T08:39:28;4.97;;;2.40;;
64712;SDS011;51140;45.340;5.980;2022-07-05T08:41:54;5.10;;;2.22;;
64712;SDS011;51140;45.340;5.980;2022-07-05T08:44:23;8.40;;;2.65;;
64712;SDS011;51140;45.340;5.980;2022-07-05T08:46:49;8.82;;;2.40;;
64712;SDS011;51140;45.340;5.980;2022-07-05T08:49:21;4.60;;;2.13;;
64712;SDS011;51140;45.340;5.980;2022-07-05T08:51:48;4.38;;;2.10;;
64712;SDS011;51140;45.340;5.980;2022-07-05T08:54:14;5.63;;;2.30;;
64712;SDS011;51140;45.340;5.980;2022-07-05T08:56:42;7.70;;;2.20;;
64712;SDS011;51140;45.340;5.980;2022-07-05T08:59:08;5.05;;;2.42;;
64712;SDS011;51140;45.340;5.980;2022-07-05T09:01:34;6.05;;;2.22;;
64712;SDS011;51140;45.340;5.980;2022-07-05T09:04:02;6.95;;;2.10;;
64712;SDS011;51140;45.340;5.980;2022-07-05T09:06:34;6.28;;;2.25;;
64712;SDS011;51140;45.340;5.980;2022-07-05T09:09:02;5.35;;;2.70;;
64712;SDS011;51140;45.340;5.980;2022-07-05T09:11:38;7.53;;;3.03;;
64712;SDS011;51140;45.340;5.980;2022-07-05T09:14:06;5.82;;;2.80;;
64712;SDS011;51140;45.340;5.980;2022-07-05T09:16:43;4.68;;;2.42;;
64712;SDS011;51140;45.340;5.980;2022-07-05T09:19:08;4.93;;;2.33;;
64712;SDS011;51140;45.340;5.980;2022-07-05T09:21:34;5.28;;;2.38;;
64712;SDS011;51140;45.340;5.980;2022-07-05T09:29:05;4.78;;;2.00;;
64712;SDS011;51140;45.340;5.980;2022-07-05T09:31:38;5.45;;;2.22;;
64712;SDS011;51140;45.340;5.980;2022-07-05T09:34:08;5.57;;;2.38;;
64712;SDS011;51140;45.340;5.980;2022-07-05T09:36:51;5.88;;;2.80;;
64712;SDS011;51140;45.340;5.980;2022-07-05T09:39:34;5.85;;;2.20;;
64712;SDS011;51140;45.340;5.980;2022-07-05T09:44:55;7.10;;;2.30;;
64712;SDS011;51140;45.340;5.980;2022-07-05T09:47:25;6.40;;;2.10;;
64712;SDS011;51140;45.340;5.980;2022-07-05T09:49:53;4.57;;;2.25;;
64712;SDS011;51140;45.340;5.980;2022-07-05T09:57:33;10.07;;;2.15;;
64712;SDS011;51140;45.340;5.980;2022-07-05T10:00:00;5.68;;;2.42;;
64712;SDS011;51140;45.340;5.980;2022-07-05T10:05:13;8.02;;;2.20;;
64712;SDS011;51140;45.340;5.980;2022-07-05T10:07:45;7.38;;;2.20;;
64712;SDS011;51140;45.340;5.980;2022-07-05T10:10:13;4.88;;;2.30;;
64712;SDS011;51140;45.340;5.980;2022-07-05T10:12:41;4.65;;;2.28;;
64712;SDS011;51140;45.340;5.980;2022-07-05T10:15:09;4.57;;;2.13;;
64712;SDS011;51140;45.340;5.980;2022-07-05T10:17:37;5.50;;;2.17;;
64712;SDS011;51140;45.340;5.980;2022-07-05T10:20:09;4.32;;;2.10;;
64712;SDS011;51140;45.340;5.980;2022-07-05T10:22:39;5.22;;;2.10;;
64712;SDS011;51140;45.340;5.980;2022-07-05T10:25:05;6.38;;;1.92;;
64712;SDS011;51140;45.340;5.980;2022-07-05T10:27:32;5.07;;;1.95;;
64712;SDS011;51140;45.340;5.980;2022-07-05T10:30:00;6.18;;;2.28;;
64712;SDS011;51140;45.340;5.980;2022-07-05T10:32:27;7.43;;;2.20;;
64712;SDS011;51140;45.340;5.980;2022-07-05T10:34:53;5.93;;;2.33;;
64712;SDS011;51140;45.340;5.980;2022-07-05T10:37:23;8.77;;;2.28;;
64712;SDS011;51140;45.340;5.980;2022-07-05T10:39:50;6.70;;;2.28;;
64712;SDS011;51140;45.340;5.980;2022-07-05T10:42:16;6.70;;;2.28;;
64712;SDS011;51140;45.340;5.980;2022-07-05T10:44:43;4.45;;;1.83;;
64712;SDS011;51140;45.340;5.980;2022-07-05T10:47:09;6.07;;;2.28;;
64712;SDS011;51140;45.340;5.980;2022-07-05T10:49:36;5.57;;;2.22;;
64712;SDS011;51140;45.340;5.980;2022-07-05T10:52:02;6.93;;;2.17;;
64712;SDS011;51140;45.340;5.980;2022-07-05T10:54:28;4.78;;;2.25;;
64712;SDS011;51140;45.340;5.980;2022-07-05T11:00:09;5.63;;;2.10;;
64712;SDS011;51140;45.340;5.980;2022-07-05T11:02:36;3.90;;;1.95;;
64712;SDS011;51140;45.340;5.980;2022-07-05T11:05:02;7.32;;;2.10;;
64712;SDS011;51140;45.340;5.980;2022-07-05T11:10:28;5.35;;;2.10;;
64712;SDS011;51140;45.340;5.980;2022-07-05T11:12:56;5.97;;;2.00;;
64712;SDS011;51140;45.340;5.980;2022-07-05T11:15:21;7.43;;;2.05;;
64712;SDS011;51140;45.340;5.980;2022-07-05T11:17:47;6.97;;;1.98;;
64712;SDS011;51140;45.340;5.980;2022-07-05T11:20:14;5.53;;;1.90;;
64712;SDS011;51140;45.340;5.980;2022-07-05T11:25:29;5.03;;;1.90;;
64712;SDS011;51140;45.340;5.980;2022-07-05T11:28:00;4.65;;;1.80;;
64712;SDS011;51140;45.340;5.980;2022-07-05T11:30:26;7.35;;;2.30;;
64712;SDS011;51140;45.340;5.980;2022-07-05T11:32:52;4.60;;;1.80;;
64712;SDS011;51140;45.340;5.980;2022-07-05T11:35:18;6.18;;;2.08;;
64712;SDS011;51140;45.340;5.980;2022-07-05T11:40:35;6.97;;;2.25;;
64712;SDS011;51140;45.340;5.980;2022-07-05T11:43:02;8.93;;;1.80;;
64712;SDS011;51140;45.340;5.980;2022-07-05T11:45:29;4.60;;;2.15;;
64712;SDS011;51140;45.340;5.980;2022-07-05T11:47:55;6.72;;;1.85;;
64712;SDS011;51140;45.340;5.980;2022-07-05T11:50:25;6.70;;;2.00;;
64712;SDS011;51140;45.340;5.980;2022-07-05T11:52:52;4.50;;;1.90;;
64712;SDS011;51140;45.340;5.980;2022-07-05T11:55:18;6.93;;;1.90;;
64712;SDS011;51140;45.340;5.980;2022-07-05T11:57:48;5.72;;;1.70;;
64712;SDS011;51140;45.340;5.980;2022-07-05T12:00:24;5.93;;;2.08;;
64712;SDS011;51140;45.340;5.980;2022-07-05T12:03:11;6.88;;;2.08;;
64712;SDS011;51140;45.340;5.980;2022-07-05T12:05:38;9.48;;;1.95;;
64712;SDS011;51140;45.340;5.980;2022-07-05T12:08:05;3.85;;;1.73;;
64712;SDS011;51140;45.340;5.980;2022-07-05T12:10:31;6.75;;;2.28;;
64712;SDS011;51140;45.340;5.980;2022-07-05T12:13:14;4.50;;;2.10;;
64712;SDS011;51140;45.340;5.980;2022-07-05T12:15:40;5.97;;;1.65;;
64712;SDS011;51140;45.340;5.980;2022-07-05T12:18:06;4.25;;;1.60;;
64712;SDS011;51140;45.340;5.980;2022-07-05T12:20:34;7.20;;;2.00;;
64712;SDS011;51140;45.340;5.980;2022-07-05T12:23:01;3.88;;;1.70;;
64712;SDS011;51140;45.340;5.980;2022-07-05T12:25:28;5.60;;;1.90;;
64712;SDS011;51140;45.340;5.980;2022-07-05T12:27:56;5.65;;;1.80;;
64712;SDS011;51140;45.340;5.980;2022-07-05T12:30:23;6.28;;;1.92;;
64712;SDS011;51140;45.340;5.980;2022-07-05T12:32:52;7.90;;;1.92;;
64712;SDS011;51140;45.340;5.980;2022-07-05T12:35:26;4.53;;;1.67;;
64712;SDS011;51140;45.340;5.980;2022-07-05T12:37:52;5.78;;;1.90;;
64712;SDS011;51140;45.340;5.980;2022-07-05T12:40:20;4.60;;;1.83;;
64712;SDS011;51140;45.340;5.980;2022-07-05T12:42:47;5.70;;;1.73;;
64712;SDS011;51140;45.340;5.980;2022-07-05T12:45:24;5.32;;;1.90;;
64712;SDS011;51140;45.340;5.980;2022-07-05T12:50:19;5.80;;;1.80;;
64712;SDS011;51140;45.340;5.980;2022-07-05T12:53:04;6.70;;;1.73;;
64712;SDS011;51140;45.340;5.980;2022-07-05T12:55:50;7.65;;;1.88;;
64712;SDS011;51140;45.340;5.980;2022-07-05T12:58:47;11.65;;;1.85;;
64712;SDS011;51140;45.340;5.980;2022-07-05T13:06:41;8.05;;;1.92;;
64712;SDS011;51140;45.340;5.980;2022-07-05T13:09:09;6.68;;;1.90;;
64712;SDS011;51140;45.340;5.980;2022-07-05T13:11:35;5.43;;;1.95;;
64712;SDS011;51140;45.340;5.980;2022-07-05T13:14:00;12.25;;;2.00;;
64712;SDS011;51140;45.340;5.980;2022-07-05T13:16:26;6.78;;;2.03;;
64712;SDS011;51140;45.340;5.980;2022-07-05T13:18:51;6.35;;;1.98;;
64712;SDS011;51140;45.340;5.980;2022-07-05T13:21:17;12.40;;;2.08;;
64712;SDS011;51140;45.340;5.980;2022-07-05T13:23:42;5.30;;;1.52;;
64712;SDS011;51140;45.340;5.980;2022-07-05T13:26:07;5.05;;;2.00;;
64712;SDS011;51140;45.340;5.980;2022-07-05T13:28:33;8.07;;;1.80;;
64712;SDS011;51140;45.340;5.980;2022-07-05T13:30:58;7.07;;;1.88;;
64712;SDS011;51140;45.340;5.980;2022-07-05T13:33:24;9.40;;;1.55;;
64712;SDS011;51140;45.340;5.980;2022-07-05T13:35:49;4.88;;;1.50;;
64712;SDS011;51140;45.340;5.980;2022-07-05T13:38:14;4.68;;;1.60;;
64712;SDS011;51140;45.340;5.980;2022-07-05T13:40:40;9.98;;;2.22;;
64712;SDS011;51140;45.340;5.980;2022-07-05T13:43:05;5.07;;;1.50;;
64712;SDS011;51140;45.340;5.980;2022-07-05T13:45:31;3.80;;;1.52;;
64712;SDS011;51140;45.340;5.980;2022-07-05T13:47:56;4.78;;;1.60;;
64712;SDS011;51140;45.340;5.980;2022-07-05T13:50:22;7.63;;;1.75;;
64712;SDS011;51140;45.340;5.980;2022-07-05T13:52:56;8.45;;;1.52;;
64712;SDS011;51140;45.340;5.980;2022-07-05T13:55:22;6.43;;;1.95;;
64712;SDS011;51140;45.340;5.980;2022-07-05T13:57:47;5.15;;;1.67;;
64712;SDS011;51140;45.340;5.980;2022-07-05T14:00:13;5.13;;;1.75;;
64712;SDS011;51140;45.340;5.980;2022-07-05T14:02:38;6.05;;;1.70;;
64712;SDS011;51140;45.340;5.980;2022-07-05T14:05:04;7.70;;;1.95;;
64712;SDS011;51140;45.340;5.980;2022-07-05T14:07:30;7.47;;;2.00;;
64712;SDS011;51140;45.340;5.980;2022-07-05T14:09:55;5.93;;;1.77;;
64712;SDS011;51140;45.340;5.980;2022-07-05T14:12:21;9.23;;;2.28;;
64712;SDS011;51140;45.340;5.980;2022-07-05T14:14:46;9.65;;;1.83;;
64712;SDS011;51140;45.340;5.980;2022-07-05T14:17:11;4.88;;;1.50;;
64712;SDS011;51140;45.340;5.980;2022-07-05T14:19:37;4.15;;;1.70;;
64712;SDS011;51140;45.340;5.980;2022-07-05T14:22:03;5.18;;;1.73;;
64712;SDS011;51140;45.340;5.980;2022-07-05T14:24:28;6.45;;;1.48;;
64712;SDS011;51140;45.340;5.980;2022-07-05T14:26:54;6.20;;;1.42;;
64712;SDS011;51140;45.340;5.980;2022-07-05T14:29:19;5.85;;;1.50;;
64712;SDS011;51140;45.340;5.980;2022-07-05T14:31:45;5.55;;;1.55;;
64712;SDS011;51140;45.340;5.980;2022-07-05T14:34:10;4.93;;;1.50;;
64712;SDS011;51140;45.340;5.980;2022-07-05T14:36:35;3.85;;;1.60;;
64712;SDS011;51140;45.340;5.980;2022-07-05T14:39:01;4.43;;;1.52;;
64712;SDS011;51140;45.340;5.980;2022-07-05T14:41:27;4.82;;;1.73;;
64712;SDS011;51140;45.340;5.980;2022-07-05T14:43:53;4.78;;;1.80;;
64712;SDS011;51140;45.340;5.980;2022-07-05T14:46:19;8.90;;;1.77;;
64712;SDS011;51140;45.340;5.980;2022-07-05T14:48:45;7.53;;;1.52;;
64712;SDS011;51140;45.340;5.980;2022-07-05T14:51:10;5.15;;;1.30;;
64712;SDS011;51140;45.340;5.980;2022-07-05T14:53:36;6.55;;;1.60;;
64712;SDS011;51140;45.340;5.980;2022-07-05T14:56:01;4.35;;;1.55;;
64712;SDS011;51140;45.340;5.980;2022-07-05T14:58:27;3.72;;;1.40;;
64712;SDS011;51140;45.340;5.980;2022-07-05T15:00:56;4.80;;;1.52;;
64712;SDS011;51140;45.340;5.980;2022-07-05T15:03:25;4.18;;;1.40;;
64712;SDS011;51140;45.340;5.980;2022-07-05T15:05:51;6.05;;;1.50;;
64712;SDS011;51140;45.340;5.980;2022-07-05T15:08:18;3.75;;;1.48;;
64712;SDS011;51140;45.340;5.980;2022-07-05T15:10:45;4.78;;;1.63;;
64712;SDS011;51140;45.340;5.980;2022-07-05T15:13:10;2.78;;;1.30;;
64712;SDS011;51140;45.340;5.980;2022-07-05T15:15:36;3.45;;;1.30;;
64712;SDS011;51140;45.340;5.980;2022-07-05T15:18:02;5.03;;;1.50;;
64712;SDS011;51140;45.340;5.980;2022-07-05T15:20:28;5.60;;;1.50;;
64712;SDS011;51140;45.340;5.980;2022-07-05T15:22:53;6.65;;;1.50;;
64712;SDS011;51140;45.340;5.980;2022-07-05T15:25:18;5.68;;;1.60;;